Terminal Aerodrome Forecast
Issued by NWS Twin Cities, MN

Home | Current Version | Previous Version | Text Only | Print | Product List | Glossary Off
Versions: 1 2 3 4 5 6 7 8 9 10 11 12 13 14

000
FTUS43 KMPX 270500
TAFSTC
TAF
KSTC 270520Z 2706/2806 28006KT P6SM SCT080
     FM270900 29010KT P6SM BKN045 OVC080
     FM271400 32013G21KT P6SM VCSH BKN020 OVC030
     FM271800 34015G22KT P6SM -SHRA SCT025 BKN040
     FM280000 35014KT P6SM VCSH BKN045=

USA.gov is the U.S. government's official web portal to all federal, state and local government web resources and services.